createdAt,value
2018-08-06T00:00:05.662Z,17.60
2018-08-06T00:05:10.768Z,17.90
2018-08-06T00:07:39.024Z,17.80
2018-08-06T00:10:11.225Z,17.80
2018-08-06T00:12:39.577Z,17.90
2018-08-06T00:15:09.003Z,17.90
2018-08-06T00:17:37.465Z,18.10
2018-08-06T00:20:06.317Z,17.90
2018-08-06T00:22:34.381Z,17.70
2018-08-06T00:27:30.996Z,17.40
2018-08-06T00:29:59.034Z,17.30
2018-08-06T00:32:27.154Z,17.20
2018-08-06T00:34:55.178Z,17.20
2018-08-06T00:37:23.378Z,17.10
2018-08-06T00:39:51.619Z,17.00
2018-08-06T00:42:19.936Z,17.00
2018-08-06T00:44:48.107Z,17.00
2018-08-06T00:47:16.336Z,17.00
2018-08-06T00:57:07.606Z,16.50
2018-08-06T01:02:03.371Z,16.40
2018-08-06T01:04:31.348Z,16.40
2018-08-06T01:06:59.401Z,16.40
2018-08-06T01:11:55.133Z,16.60
2018-08-06T01:16:51.108Z,16.60
2018-08-06T01:19:19.256Z,16.60
2018-08-06T01:21:47.364Z,16.60
2018-08-06T01:24:15.426Z,16.60
2018-08-06T01:26:43.798Z,16.50
2018-08-06T01:29:12.101Z,16.40
2018-08-06T01:31:40.369Z,16.30
2018-08-06T01:34:08.455Z,16.30
2018-08-06T01:36:36.756Z,16.40
2018-08-06T01:39:08.046Z,16.40
2018-08-06T01:41:36.563Z,16.40
2018-08-06T01:44:04.943Z,16.40
2018-08-06T01:46:33.017Z,16.40
2018-08-06T01:49:01.163Z,16.40
2018-08-06T01:51:29.465Z,16.50
2018-08-06T01:53:57.768Z,16.50
2018-08-06T01:56:25.792Z,16.50
2018-08-06T01:58:53.967Z,16.50
2018-08-06T02:01:22.337Z,16.50
2018-08-06T02:03:50.647Z,16.40
2018-08-06T02:06:18.770Z,16.30
2018-08-06T02:08:46.864Z,16.20
2018-08-06T02:11:14.958Z,16.30
2018-08-06T02:13:43.117Z,16.40
2018-08-06T02:16:11.322Z,16.40
2018-08-06T02:18:39.500Z,16.50
2018-08-06T02:21:08.062Z,16.50
2018-08-06T02:23:36.284Z,16.50
2018-08-06T02:26:04.612Z,16.40
2018-08-06T02:28:32.832Z,16.30
2018-08-06T02:31:01.089Z,16.20
2018-08-06T02:33:29.443Z,16.10
2018-08-06T02:35:57.680Z,16.00
2018-08-06T02:38:25.743Z,16.00
2018-08-06T02:40:53.842Z,16.10
2018-08-06T02:46:04.541Z,16.20
2018-08-06T02:51:00.281Z,16.20
2018-08-06T02:56:13.733Z,16.10
2018-08-06T03:01:10.124Z,16.30
2018-08-06T03:03:38.598Z,16.30
2018-08-06T03:06:07.014Z,16.30
2018-08-06T03:08:35.562Z,16.20
2018-08-06T03:11:03.854Z,16.10
2018-08-06T03:13:32.161Z,16.00
2018-08-06T03:16:00.377Z,16.00
2018-08-06T03:18:28.877Z,15.90
2018-08-06T03:20:57.230Z,15.90
2018-08-06T03:23:25.556Z,16.00
2018-08-06T03:25:53.602Z,16.00
2018-08-06T03:28:21.914Z,15.90
2018-08-06T03:30:49.909Z,15.80
2018-08-06T03:33:18.199Z,15.70
2018-08-06T03:38:14.277Z,15.90
2018-08-06T03:40:42.505Z,15.90
2018-08-06T03:43:10.812Z,15.90
2018-08-06T03:45:39.233Z,15.80
2018-08-06T03:48:07.510Z,15.60
2018-08-06T03:50:35.783Z,15.30
2018-08-06T03:53:04.262Z,15.20
2018-08-06T03:55:32.191Z,15.20
2018-08-06T03:58:00.313Z,15.30
2018-08-06T04:00:28.457Z,15.30
2018-08-06T04:02:56.548Z,15.40
2018-08-06T04:05:24.483Z,15.60
2018-08-06T04:10:20.539Z,15.80
2018-08-06T04:12:48.556Z,16.00
2018-08-06T04:15:16.641Z,16.10
2018-08-06T04:17:44.657Z,16.10
2018-08-06T04:20:13.164Z,16.10
2018-08-06T04:22:42.008Z,16.00
2018-08-06T04:25:10.121Z,16.00
2018-08-06T04:27:38.403Z,16.00
2018-08-06T04:30:10.100Z,16.00
2018-08-06T04:32:38.004Z,16.20
2018-08-06T04:35:06.097Z,16.30
2018-08-06T04:37:34.124Z,16.30
2018-08-06T04:40:02.143Z,16.20
2018-08-06T04:42:30.117Z,16.20
2018-08-06T04:44:58.101Z,16.30
2018-08-06T04:47:26.022Z,16.40
2018-08-06T04:49:54.019Z,16.60
2018-08-06T04:52:22.125Z,16.90
2018-08-06T04:54:50.077Z,17.30
2018-08-06T04:57:18.044Z,17.80
2018-08-06T04:59:46.147Z,18.60
2018-08-06T05:02:14.092Z,19.40
2018-08-06T05:04:42.036Z,19.90
2018-08-06T05:07:10.025Z,20.30
2018-08-06T05:09:38.700Z,20.50
2018-08-06T05:12:07.133Z,20.90
2018-08-06T05:14:35.840Z,21.30
2018-08-06T05:17:04.333Z,21.50
2018-08-06T05:22:00.185Z,21.90
2018-08-06T05:26:55.957Z,23.20
2018-08-06T05:29:23.933Z,22.40
2018-08-06T05:31:51.949Z,22.20
2018-08-06T05:34:19.953Z,22.40
2018-08-06T05:36:48.017Z,23.20
2018-08-06T05:39:16.070Z,23.50
2018-08-06T05:46:39.590Z,24.50
2018-08-06T05:49:07.598Z,24.80
2018-08-06T05:51:35.612Z,24.00
2018-08-06T05:54:03.760Z,23.80
2018-08-06T05:56:31.765Z,23.30
2018-08-06T06:01:27.612Z,22.30
2018-08-06T06:06:23.403Z,21.60
2018-08-06T06:08:51.373Z,21.50
2018-08-06T06:11:19.372Z,21.60
2018-08-06T06:13:47.414Z,21.80
2018-08-06T06:16:15.497Z,21.80
2018-08-06T06:18:43.529Z,21.60
2018-08-06T06:21:11.525Z,21.90
2018-08-06T06:23:39.497Z,22.20
2018-08-06T06:26:07.540Z,22.30
2018-08-06T06:28:35.579Z,22.30
2018-08-06T06:31:03.586Z,22.20
2018-08-06T06:33:31.568Z,21.80
2018-08-06T06:35:59.637Z,22.00
2018-08-06T06:38:27.641Z,22.30
2018-08-06T06:40:55.613Z,22.60
2018-08-06T06:43:23.701Z,22.40
2018-08-06T06:48:19.572Z,22.60
2018-08-06T06:50:47.545Z,22.80
2018-08-06T06:55:43.401Z,22.90
2018-08-06T06:58:11.338Z,23.10
2018-08-06T07:00:39.304Z,23.30
2018-08-06T07:03:07.362Z,22.90
2018-08-06T07:05:35.344Z,22.80
2018-08-06T07:08:03.468Z,22.90
2018-08-06T07:10:31.404Z,23.10
2018-08-06T07:15:27.247Z,23.30
2018-08-06T07:20:23.060Z,23.60
2018-08-06T07:22:51.173Z,23.50
2018-08-06T07:25:19.160Z,23.60
2018-08-06T07:27:47.211Z,24.10
2018-08-06T07:30:15.555Z,24.40
2018-08-06T07:32:44.168Z,24.40
2018-08-06T07:35:12.949Z,24.60
2018-08-06T07:37:41.285Z,24.60
2018-08-06T07:40:11.469Z,24.90
2018-08-06T07:42:39.837Z,24.90
2018-08-06T07:45:14.386Z,25.30
2018-08-06T07:47:42.393Z,25.60
2018-08-06T07:50:12.761Z,25.80
2018-08-06T07:55:08.691Z,26.40
2018-08-06T08:00:08.417Z,26.40
2018-08-06T08:02:36.430Z,26.80
2018-08-06T08:05:06.309Z,26.50
2018-08-06T08:07:35.058Z,26.70
2018-08-06T08:10:04.156Z,26.50
2018-08-06T08:12:32.105Z,26.60
2018-08-06T08:15:00.130Z,26.80
2018-08-06T08:17:28.156Z,26.80
2018-08-06T08:19:56.210Z,27.00
2018-08-06T08:22:24.166Z,26.80
2018-08-06T08:27:19.953Z,27.50
2018-08-06T08:29:47.933Z,27.50
2018-08-06T08:32:15.904Z,28.00
2018-08-06T08:34:44.001Z,28.10
2018-08-06T08:37:11.964Z,27.80
2018-08-06T08:39:39.979Z,27.60
2018-08-06T08:42:07.954Z,27.60
2018-08-06T08:44:35.964Z,27.10
2018-08-06T08:47:04.040Z,26.90
2018-08-06T08:49:32.032Z,27.20
2018-08-06T08:52:00.039Z,27.30
2018-08-06T08:54:28.020Z,27.80
2018-08-06T08:56:56.189Z,27.90
2018-08-06T08:59:24.277Z,27.80
2018-08-06T09:01:52.360Z,27.80
2018-08-06T09:04:20.393Z,27.40
2018-08-06T09:06:48.416Z,27.70
2018-08-06T09:09:16.370Z,27.50
2018-08-06T09:11:44.410Z,27.40
2018-08-06T09:14:12.418Z,27.70
2018-08-06T09:16:40.469Z,28.00
2018-08-06T09:19:08.431Z,28.10
2018-08-06T09:21:36.384Z,28.00
2018-08-06T09:26:32.260Z,28.20
2018-08-06T09:29:00.264Z,28.10
2018-08-06T09:31:28.247Z,28.40
2018-08-06T09:33:56.323Z,28.60
2018-08-06T09:36:24.365Z,28.80
2018-08-06T09:38:52.380Z,29.10
2018-08-06T09:41:20.392Z,29.30
2018-08-06T09:43:48.426Z,29.20
2018-08-06T09:48:44.318Z,29.30
2018-08-06T09:51:12.283Z,29.10
2018-08-06T09:53:40.358Z,29.00
2018-08-06T09:56:08.351Z,29.00
2018-08-06T09:58:36.393Z,29.00
2018-08-06T10:01:09.979Z,28.80
2018-08-06T10:03:37.964Z,29.00
2018-08-06T10:06:06.084Z,29.10
2018-08-06T10:08:34.012Z,29.20
2018-08-06T10:11:01.995Z,29.60
2018-08-06T10:13:30.009Z,29.20
2018-08-06T10:15:58.049Z,29.60
2018-08-06T10:18:26.092Z,29.60
2018-08-06T10:20:54.067Z,29.70
2018-08-06T10:23:22.048Z,29.30
2018-08-06T10:25:50.022Z,29.40
2018-08-06T10:28:17.956Z,29.80
2018-08-06T10:33:13.708Z,29.60
2018-08-06T10:35:41.730Z,29.10
2018-08-06T10:38:09.673Z,28.70
2018-08-06T10:40:37.670Z,28.80
2018-08-06T10:43:05.661Z,29.10
2018-08-06T10:45:33.688Z,29.30
2018-08-06T10:48:01.710Z,29.30
2018-08-06T10:52:57.519Z,29.80
2018-08-06T10:55:25.573Z,30.00
2018-08-06T10:57:53.585Z,30.20
2018-08-06T11:00:22.799Z,30.50
2018-08-06T11:05:19.672Z,30.30
2018-08-06T11:07:47.719Z,30.50
2018-08-06T11:10:19.007Z,30.80
2018-08-06T11:12:47.023Z,30.40
2018-08-06T11:15:20.122Z,29.90
2018-08-06T11:17:48.459Z,29.90
2018-08-06T11:20:17.216Z,30.00
2018-08-06T11:25:23.008Z,30.60
2018-08-06T11:27:51.152Z,30.50
2018-08-06T11:30:20.460Z,30.40
2018-08-06T11:35:17.074Z,30.60
2018-08-06T11:37:45.237Z,30.70
2018-08-06T11:40:14.510Z,30.90
2018-08-06T11:42:48.820Z,30.30
2018-08-06T11:45:17.997Z,30.40
2018-08-06T11:47:46.036Z,30.60
2018-08-06T11:50:14.190Z,30.50
2018-08-06T11:52:42.996Z,30.90
2018-08-06T11:55:11.177Z,30.70
2018-08-06T11:57:40.851Z,30.70
2018-08-06T12:00:16.271Z,30.90
2018-08-06T12:02:44.307Z,30.90
2018-08-06T12:05:12.692Z,30.90
2018-08-06T12:07:41.192Z,31.40
2018-08-06T12:10:20.070Z,31.30
2018-08-06T12:12:56.522Z,31.30
2018-08-06T12:18:00.936Z,31.20
2018-08-06T12:20:32.799Z,31.20
2018-08-06T12:23:17.445Z,31.10
2018-08-06T12:25:46.425Z,31.40
2018-08-06T12:28:16.564Z,31.50
2018-08-06T12:30:44.617Z,31.60
2018-08-06T12:33:12.576Z,31.70
2018-08-06T12:35:40.544Z,31.40
2018-08-06T12:38:08.542Z,31.30
2018-08-06T12:40:36.502Z,31.30
2018-08-06T12:43:04.911Z,31.30
2018-08-06T12:45:32.910Z,31.30
2018-08-06T12:50:28.690Z,31.30
2018-08-06T12:52:56.677Z,31.30
2018-08-06T12:55:24.668Z,31.30
2018-08-06T12:57:52.645Z,31.70
2018-08-06T13:00:26.539Z,31.60
2018-08-06T13:02:54.943Z,31.50
2018-08-06T13:05:23.632Z,31.50
2018-08-06T13:07:51.944Z,31.50
2018-08-06T13:10:19.940Z,31.70
2018-08-06T13:12:47.933Z,31.60
2018-08-06T13:15:16.543Z,31.70
2018-08-06T13:20:12.365Z,32.00
2018-08-06T13:22:40.321Z,31.60
2018-08-06T13:25:10.072Z,31.30
2018-08-06T13:27:38.144Z,31.50
2018-08-06T13:30:09.568Z,31.50
2018-08-06T13:32:37.630Z,31.80
2018-08-06T13:35:05.697Z,31.80
2018-08-06T13:37:33.816Z,31.80
2018-08-06T13:40:01.817Z,31.40
2018-08-06T13:42:30.064Z,31.30
2018-08-06T13:47:25.833Z,31.40
2018-08-06T13:49:53.808Z,31.60
2018-08-06T13:52:21.792Z,31.90
2018-08-06T13:54:50.098Z,31.90
2018-08-06T13:57:18.120Z,31.90
2018-08-06T13:59:46.157Z,31.80
2018-08-06T14:02:14.236Z,31.70
2018-08-06T14:07:10.168Z,31.80
2018-08-06T14:09:38.105Z,31.40
2018-08-06T14:12:06.494Z,31.50
2018-08-06T14:14:34.464Z,31.70
2018-08-06T14:17:02.460Z,32.00
2018-08-06T14:19:30.793Z,31.90
2018-08-06T14:21:58.943Z,31.80
2018-08-06T14:24:26.888Z,31.50
2018-08-06T14:26:55.978Z,31.60
2018-08-06T14:29:25.017Z,31.60
2018-08-06T14:31:53.384Z,31.70
2018-08-06T14:34:21.678Z,31.60
2018-08-06T14:36:49.882Z,31.50
2018-08-06T14:39:17.888Z,31.40
2018-08-06T14:41:45.870Z,31.30
2018-08-06T14:46:41.655Z,31.10
2018-08-06T14:49:09.604Z,31.10
2018-08-06T14:51:37.629Z,31.00
2018-08-06T14:54:05.592Z,30.90
2018-08-06T14:56:33.621Z,31.00
2018-08-06T14:59:01.610Z,31.00
2018-08-06T15:01:29.613Z,31.10
2018-08-06T15:03:57.624Z,31.00
2018-08-06T15:06:25.578Z,31.10
2018-08-06T15:11:21.631Z,31.10
2018-08-06T15:16:17.336Z,31.30
2018-08-06T15:18:45.308Z,31.10
2018-08-06T15:21:13.311Z,31.40
2018-08-06T15:23:41.316Z,31.30
2018-08-06T15:26:09.292Z,31.20
2018-08-06T15:28:37.231Z,31.40
2018-08-06T15:31:05.597Z,31.50
2018-08-06T15:38:29.120Z,31.30
2018-08-06T15:40:57.590Z,31.30
2018-08-06T15:43:25.603Z,31.20
2018-08-06T15:45:53.615Z,31.20
2018-08-06T15:50:49.441Z,31.00
2018-08-06T15:53:17.423Z,31.10
2018-08-06T16:00:41.157Z,31.30
2018-08-06T16:03:09.145Z,31.30
2018-08-06T16:05:37.177Z,31.30
2018-08-06T16:10:33.125Z,31.10
2018-08-06T16:15:28.936Z,31.00
2018-08-06T16:17:56.916Z,31.00
2018-08-06T16:20:24.880Z,31.10
2018-08-06T16:22:52.920Z,31.30
2018-08-06T16:25:20.922Z,31.20
2018-08-06T16:27:49.085Z,31.10
2018-08-06T16:30:19.038Z,31.10
2018-08-06T16:32:47.522Z,31.10
2018-08-06T16:35:17.047Z,31.10
2018-08-06T16:37:45.444Z,31.00
2018-08-06T16:40:13.880Z,30.90
2018-08-06T16:42:42.298Z,30.70
2018-08-06T16:45:10.418Z,30.60
2018-08-06T16:47:38.925Z,30.60
2018-08-06T16:50:09.046Z,30.60
2018-08-06T16:52:37.214Z,30.60
2018-08-06T16:55:05.973Z,30.90
2018-08-06T16:57:33.947Z,32.30
2018-08-06T17:00:01.916Z,33.50
2018-08-06T17:02:29.937Z,34.50
2018-08-06T17:07:25.762Z,35.30
2018-08-06T17:12:21.502Z,35.00
2018-08-06T17:14:49.484Z,35.00
2018-08-06T17:22:25.623Z,34.50
2018-08-06T17:24:59.211Z,34.20
2018-08-06T17:27:32.836Z,33.50
2018-08-06T17:30:05.124Z,33.20
2018-08-06T17:32:41.964Z,33.10
2018-08-06T17:37:46.952Z,32.90
2018-08-06T17:40:20.638Z,33.40
2018-08-06T17:42:51.832Z,33.40
2018-08-06T17:45:25.004Z,32.20
2018-08-06T17:47:57.060Z,31.10
2018-08-06T17:50:29.516Z,30.20
2018-08-06T17:53:02.511Z,29.60
2018-08-06T17:55:37.393Z,29.10
2018-08-06T17:58:11.812Z,28.80
2018-08-06T18:00:42.872Z,29.20
2018-08-06T18:03:14.469Z,29.50
2018-08-06T18:05:46.468Z,30.50
2018-08-06T18:08:17.896Z,30.50
2018-08-06T18:10:50.871Z,30.10
2018-08-06T18:13:23.498Z,30.00
2018-08-06T18:18:24.396Z,29.90
2018-08-06T18:20:55.019Z,29.90
2018-08-06T18:23:24.498Z,29.70
2018-08-06T18:25:52.476Z,29.50
2018-08-06T18:30:48.456Z,28.80
2018-08-06T18:33:17.945Z,28.30
2018-08-06T18:35:46.264Z,27.80
2018-08-06T18:38:14.977Z,27.30
2018-08-06T18:40:42.965Z,27.00
2018-08-06T18:45:39.259Z,26.30
2018-08-06T18:48:07.614Z,26.20
2018-08-06T18:50:35.632Z,25.70
2018-08-06T18:53:04.056Z,25.20
2018-08-06T19:00:31.589Z,24.60
2018-08-06T19:02:59.648Z,24.60
2018-08-06T19:05:27.969Z,24.70
2018-08-06T19:07:56.224Z,24.70
2018-08-06T19:10:24.596Z,24.70
2018-08-06T19:12:58.205Z,24.80
2018-08-06T19:15:26.531Z,24.70
2018-08-06T19:20:31.229Z,24.60
2018-08-06T19:22:59.366Z,24.40
2018-08-06T19:25:29.072Z,24.40
2018-08-06T19:27:57.532Z,24.40
2018-08-06T19:30:31.983Z,24.30
2018-08-06T19:33:00.828Z,23.90
2018-08-06T19:35:29.274Z,23.50
2018-08-06T19:37:57.568Z,23.40
2018-08-06T19:40:25.978Z,23.10
2018-08-06T19:42:59.452Z,22.90
2018-08-06T19:45:27.750Z,22.70
2018-08-06T19:47:55.841Z,22.70
2018-08-06T19:50:29.588Z,22.70
2018-08-06T19:52:57.891Z,22.70
2018-08-06T19:55:32.648Z,22.70
2018-08-06T19:58:00.697Z,22.60
2018-08-06T20:00:28.764Z,22.60
2018-08-06T20:02:57.104Z,22.60
2018-08-06T20:07:54.621Z,22.40
2018-08-06T20:10:22.808Z,22.40
2018-08-06T20:12:51.367Z,22.40
2018-08-06T20:15:19.982Z,22.40
2018-08-06T20:17:48.802Z,22.30
2018-08-06T20:20:17.164Z,22.30
2018-08-06T20:22:45.681Z,22.30
2018-08-06T20:27:44.542Z,22.10
2018-08-06T20:30:13.809Z,22.00
2018-08-06T20:32:42.021Z,21.80
2018-08-06T20:35:12.491Z,21.80
2018-08-06T20:40:09.811Z,21.60
2018-08-06T20:42:39.112Z,21.60
2018-08-06T20:45:12.097Z,21.50
2018-08-06T20:47:41.097Z,21.40
2018-08-06T20:50:11.571Z,21.40
2018-08-06T20:52:39.804Z,21.30
2018-08-06T20:55:08.941Z,21.20
2018-08-06T20:57:37.317Z,21.10
2018-08-06T21:00:06.346Z,21.00
2018-08-06T21:02:34.508Z,21.00
2018-08-06T21:05:02.752Z,21.00
2018-08-06T21:07:31.719Z,21.00
2018-08-06T21:09:59.804Z,20.90
2018-08-06T21:12:28.048Z,20.90
2018-08-06T21:14:56.275Z,20.80
2018-08-06T21:17:24.761Z,20.80
2018-08-06T21:19:53.118Z,20.80
2018-08-06T21:22:21.390Z,20.70
2018-08-06T21:24:49.788Z,20.80
2018-08-06T21:27:17.921Z,20.80
2018-08-06T21:29:46.129Z,20.80
2018-08-06T21:32:14.264Z,20.70
2018-08-06T21:37:10.417Z,20.60
2018-08-06T21:39:38.641Z,20.60
2018-08-06T21:42:07.176Z,20.60
2018-08-06T21:47:03.125Z,20.60
2018-08-06T21:51:59.232Z,20.50
2018-08-06T21:54:27.573Z,20.40
2018-08-06T21:56:55.664Z,20.60
2018-08-06T21:59:23.904Z,20.60
2018-08-06T22:01:52.206Z,20.60
2018-08-06T22:04:20.564Z,20.60
2018-08-06T22:06:48.831Z,20.70
2018-08-06T22:09:16.934Z,20.80
2018-08-06T22:11:45.199Z,20.90
2018-08-06T22:14:13.485Z,21.10
2018-08-06T22:16:41.753Z,21.10
2018-08-06T22:19:10.810Z,21.20
2018-08-06T22:21:38.929Z,21.30
2018-08-06T22:24:07.833Z,21.30
2018-08-06T22:26:36.305Z,21.30
2018-08-06T22:29:04.884Z,21.40
2018-08-06T22:31:33.173Z,21.40
2018-08-06T22:34:01.405Z,21.60
2018-08-06T22:36:29.498Z,21.60
2018-08-06T22:41:25.704Z,21.70
2018-08-06T22:43:54.148Z,21.80
2018-08-06T22:46:22.683Z,21.90
2018-08-06T22:48:50.801Z,22.10
2018-08-06T22:51:19.096Z,22.10
2018-08-06T22:53:47.348Z,22.10
2018-08-06T22:56:15.568Z,22.10
2018-08-06T22:58:43.591Z,21.80
2018-08-06T23:01:11.804Z,21.60
2018-08-06T23:03:39.876Z,21.50
2018-08-06T23:06:09.080Z,21.40
2018-08-06T23:08:37.464Z,21.20
2018-08-06T23:11:06.036Z,21.20
2018-08-06T23:13:34.221Z,21.30
2018-08-06T23:16:02.568Z,21.30
2018-08-06T23:18:30.788Z,21.30
2018-08-06T23:20:59.076Z,21.30
2018-08-06T23:23:27.216Z,21.30
2018-08-06T23:25:55.484Z,21.20
2018-08-06T23:28:23.705Z,21.20
2018-08-06T23:30:51.926Z,21.20
2018-08-06T23:33:20.244Z,21.10
2018-08-06T23:35:48.387Z,20.90
2018-08-06T23:38:16.589Z,20.80
2018-08-06T23:40:44.852Z,20.60
2018-08-06T23:43:13.016Z,20.50
2018-08-06T23:45:41.324Z,20.50
2018-08-06T23:48:09.466Z,20.30
2018-08-06T23:50:37.759Z,20.20
2018-08-06T23:53:06.027Z,20.20
2018-08-06T23:55:34.220Z,20.10
2018-08-06T23:58:02.289Z,20.00
